createdAt,value
2023-02-19T00:01:53.221Z,86.39
2023-02-19T00:04:22.569Z,86.32
2023-02-19T00:06:50.891Z,86.28
2023-02-19T00:09:19.846Z,86.33
2023-02-19T00:11:48.199Z,86.34
2023-02-19T00:14:18.998Z,86.35
2023-02-19T00:16:47.426Z,86.38
2023-02-19T00:19:17.904Z,86.41
2023-02-19T00:21:46.162Z,86.39
2023-02-19T00:24:16.239Z,86.35
2023-02-19T00:26:45.181Z,86.30
2023-02-19T00:29:15.692Z,86.23
2023-02-19T00:31:44.773Z,86.10
2023-02-19T00:34:13.946Z,86.08
2023-02-19T00:36:42.864Z,86.01
2023-02-19T00:39:15.219Z,85.91
2023-02-19T00:41:43.377Z,85.76
2023-02-19T00:44:14.417Z,85.70
2023-02-19T00:46:44.347Z,85.68
2023-02-19T00:49:16.577Z,85.64
2023-02-19T00:51:44.243Z,85.64
2023-02-19T00:54:12.935Z,85.64
2023-02-19T00:56:41.015Z,85.61
2023-02-19T00:59:09.388Z,85.52
2023-02-19T01:01:37.464Z,85.44
2023-02-19T01:04:06.697Z,85.28
2023-02-19T01:06:35.592Z,85.10
2023-02-19T01:09:05.001Z,84.91
2023-02-19T01:11:32.675Z,84.86
2023-02-19T01:14:01.741Z,84.78
2023-02-19T01:16:30.919Z,84.65
2023-02-19T01:18:59.485Z,84.52
2023-02-19T01:21:28.434Z,84.38
2023-02-19T01:23:57.359Z,84.27
2023-02-19T01:26:30.623Z,84.06
2023-02-19T01:29:00.035Z,83.67
2023-02-19T01:31:28.764Z,83.33
2023-02-19T01:34:00.026Z,83.11
2023-02-19T01:36:29.024Z,83.11
2023-02-19T01:38:57.051Z,83.06
2023-02-19T01:41:25.975Z,83.06
2023-02-19T01:43:56.562Z,83.05
2023-02-19T01:46:43.850Z,83.13
2023-02-19T01:49:27.843Z,83.16
2023-02-19T01:51:58.450Z,83.03
2023-02-19T01:54:30.916Z,83.03
2023-02-19T01:56:59.988Z,82.90
2023-02-19T01:59:27.768Z,82.89
2023-02-19T02:01:56.160Z,82.72
2023-02-19T02:04:24.486Z,82.74
2023-02-19T02:06:58.702Z,82.61
2023-02-19T02:09:49.679Z,82.52
2023-02-19T02:12:17.347Z,82.53
2023-02-19T02:14:48.081Z,82.56
2023-02-19T02:17:29.455Z,82.54
2023-02-19T02:20:26.545Z,82.51
2023-02-19T02:23:00.695Z,82.63
2023-02-19T02:26:02.005Z,82.74
2023-02-19T02:29:15.097Z,82.91
2023-02-19T02:31:48.656Z,82.93
2023-02-19T02:34:23.276Z,82.96
2023-02-19T02:36:55.680Z,83.01
2023-02-19T02:39:27.033Z,82.99
2023-02-19T02:42:18.834Z,82.96
2023-02-19T02:45:10.966Z,83.00
2023-02-19T02:47:47.680Z,82.97
2023-02-19T02:50:18.606Z,83.01
2023-02-19T02:53:08.890Z,82.91
2023-02-19T02:55:43.014Z,82.86
2023-02-19T02:58:12.484Z,82.84
2023-02-19T03:01:04.268Z,82.70
2023-02-19T03:03:32.627Z,82.60
2023-02-19T03:06:04.821Z,82.56
2023-02-19T03:08:40.551Z,82.54
2023-02-19T03:11:30.383Z,82.38
2023-02-19T03:14:28.745Z,82.18
2023-02-19T03:17:26.733Z,82.17
2023-02-19T03:19:58.338Z,82.14
2023-02-19T03:22:31.026Z,82.02
2023-02-19T03:25:28.354Z,81.93
2023-02-19T03:28:00.432Z,81.81
2023-02-19T03:30:39.165Z,81.72
2023-02-19T03:33:15.828Z,81.60
2023-02-19T03:36:06.621Z,81.51
2023-02-19T03:38:41.288Z,81.51
2023-02-19T03:41:25.762Z,81.45
2023-02-19T03:44:07.797Z,81.31
2023-02-19T03:46:53.892Z,81.14
2023-02-19T03:49:43.682Z,81.01
2023-02-19T03:52:20.585Z,80.81
2023-02-19T03:54:58.634Z,80.88
2023-02-19T03:57:48.400Z,80.71
2023-02-19T04:00:32.904Z,80.73
2023-02-19T04:03:12.385Z,80.64
2023-02-19T04:05:52.022Z,80.65
2023-02-19T04:08:24.295Z,80.50
2023-02-19T04:11:00.138Z,80.44
2023-02-19T04:13:46.705Z,80.46
2023-02-19T04:16:24.457Z,80.50
2023-02-19T04:18:57.253Z,80.47
2023-02-19T04:21:26.730Z,80.30
2023-02-19T04:23:56.262Z,80.32
2023-02-19T04:26:24.256Z,80.31
2023-02-19T04:28:51.943Z,80.31
2023-02-19T04:31:19.846Z,80.32
2023-02-19T04:33:47.522Z,80.28
2023-02-19T04:36:15.136Z,80.24
2023-02-19T04:38:42.771Z,80.24
2023-02-19T04:41:10.864Z,80.28
2023-02-19T04:43:38.664Z,80.31
2023-02-19T04:46:06.299Z,80.39
2023-02-19T04:48:33.980Z,80.48
2023-02-19T04:51:06.664Z,80.54
2023-02-19T04:53:35.921Z,80.61
2023-02-19T04:56:09.002Z,80.53
2023-02-19T05:09:00.113Z,80.82
2023-02-19T05:11:27.952Z,80.84
2023-02-19T05:13:56.231Z,80.89
2023-02-19T05:16:23.923Z,80.91
2023-02-19T05:18:51.542Z,80.92
2023-02-19T05:21:19.503Z,80.89
2023-02-19T05:23:47.163Z,80.94
2023-02-19T05:26:21.294Z,81.03
2023-02-19T05:28:53.350Z,81.05
2023-02-19T05:31:21.626Z,81.07
2023-02-19T05:33:51.351Z,81.09
2023-02-19T05:36:20.353Z,81.13
2023-02-19T05:38:52.763Z,81.12
2023-02-19T05:41:24.421Z,81.17
2023-02-19T05:43:52.283Z,81.18
2023-02-19T05:46:23.018Z,81.23
2023-02-19T05:48:52.372Z,81.31
2023-02-19T05:51:22.780Z,81.34
2023-02-19T05:53:51.168Z,81.36
2023-02-19T05:56:30.922Z,81.38
2023-02-19T05:59:00.085Z,81.46
2023-02-19T06:01:28.980Z,81.43
2023-02-19T06:03:58.036Z,81.37
2023-02-19T06:06:27.186Z,81.35
2023-02-19T06:08:55.040Z,81.35
2023-02-19T06:11:23.652Z,81.38
2023-02-19T06:13:51.502Z,81.45
2023-02-19T06:16:19.714Z,81.57
2023-02-19T06:18:47.730Z,81.61
2023-02-19T06:21:17.029Z,81.64
2023-02-19T06:23:45.078Z,81.61
2023-02-19T06:26:20.463Z,81.68
2023-02-19T06:28:50.290Z,81.80
2023-02-19T06:31:19.671Z,81.85
2023-02-19T06:33:47.710Z,81.83
2023-02-19T06:36:17.796Z,81.89
2023-02-19T06:38:45.663Z,81.96
2023-02-19T06:41:14.197Z,81.84
2023-02-19T06:43:42.770Z,81.88
2023-02-19T06:46:12.034Z,81.89
2023-02-19T06:48:41.208Z,81.91
2023-02-19T06:51:14.041Z,81.97
2023-02-19T06:53:42.191Z,81.85
2023-02-19T06:56:29.703Z,81.84
2023-02-19T06:59:01.023Z,81.83
2023-02-19T07:01:34.264Z,81.84
2023-02-19T07:04:02.932Z,81.76
2023-02-19T07:06:31.262Z,81.75
2023-02-19T07:08:59.139Z,81.72
2023-02-19T07:11:29.933Z,81.70
2023-02-19T07:13:59.463Z,81.65
2023-02-19T07:16:27.389Z,81.58
2023-02-19T07:18:59.199Z,81.61
2023-02-19T07:21:28.178Z,81.61
2023-02-19T07:23:56.427Z,81.56
2023-02-19T07:26:24.201Z,81.48
2023-02-19T07:28:54.321Z,81.48
2023-02-19T07:31:24.212Z,81.45
2023-02-19T07:33:52.318Z,81.44
2023-02-19T07:36:21.659Z,81.45
2023-02-19T07:39:00.737Z,81.42
2023-02-19T07:41:28.717Z,81.44
2023-02-19T07:43:59.113Z,81.44
2023-02-19T07:46:27.648Z,81.50
2023-02-19T07:48:56.107Z,81.42
2023-02-19T07:51:24.622Z,81.45
2023-02-19T07:53:52.779Z,81.46
2023-02-19T07:56:21.377Z,81.42
2023-02-19T07:58:49.762Z,81.31
2023-02-19T08:01:45.511Z,81.27
2023-02-19T08:04:14.514Z,81.26
2023-02-19T08:06:44.330Z,81.29
2023-02-19T08:09:12.080Z,81.38
2023-02-19T08:11:58.481Z,81.37
2023-02-19T08:14:27.628Z,81.45
2023-02-19T08:16:55.816Z,81.47
2023-02-19T08:19:24.488Z,81.45
2023-02-19T08:21:53.595Z,81.41
2023-02-19T08:24:22.451Z,81.40
2023-02-19T08:26:50.342Z,81.32
2023-02-19T08:29:18.150Z,81.29
2023-02-19T08:31:46.053Z,81.32
2023-02-19T08:34:13.728Z,81.22
2023-02-19T08:36:41.558Z,81.10
2023-02-19T08:39:10.232Z,81.06
2023-02-19T08:41:45.274Z,81.05
2023-02-19T08:44:13.331Z,81.03
2023-02-19T08:46:41.454Z,81.00
2023-02-19T08:49:09.246Z,80.86
2023-02-19T08:51:39.614Z,80.71
2023-02-19T08:54:07.394Z,80.66
2023-02-19T08:56:35.148Z,80.73
2023-02-19T08:59:03.024Z,80.68
2023-02-19T09:01:30.818Z,80.50
2023-02-19T09:03:58.679Z,80.36
2023-02-19T09:06:26.632Z,80.17
2023-02-19T09:08:54.532Z,80.01
2023-02-19T09:11:22.226Z,80.01
2023-02-19T09:13:49.880Z,79.74
2023-02-19T09:16:17.596Z,79.58
2023-02-19T09:18:45.890Z,79.45
2023-02-19T09:21:13.743Z,79.32
2023-02-19T09:23:41.528Z,78.95
2023-02-19T09:26:11.432Z,78.60
2023-02-19T09:28:41.662Z,78.30
2023-02-19T09:31:13.122Z,78.26
2023-02-19T09:33:46.000Z,78.30
2023-02-19T09:36:15.091Z,78.00
2023-02-19T09:38:42.862Z,77.87
2023-02-19T09:41:30.803Z,77.17
2023-02-19T09:44:02.008Z,76.64
2023-02-19T09:46:40.820Z,76.61
2023-02-19T09:49:17.413Z,76.27
2023-02-19T09:52:00.060Z,76.17
2023-02-19T09:54:31.012Z,76.05
2023-02-19T09:57:02.205Z,76.01
2023-02-19T09:59:40.382Z,76.17
2023-02-19T10:02:11.556Z,76.15
2023-02-19T10:04:42.838Z,75.98
2023-02-19T10:07:13.538Z,75.71
2023-02-19T10:09:41.745Z,75.13
2023-02-19T10:12:21.981Z,75.18
2023-02-19T10:14:52.808Z,75.19
2023-02-19T10:31:24.088Z,74.24
2023-02-19T10:33:51.697Z,73.14
2023-02-19T10:36:38.244Z,72.38
2023-02-19T10:39:32.920Z,72.66
2023-02-19T10:41:59.843Z,72.86
2023-02-19T10:44:37.953Z,71.97
2023-02-19T10:47:05.754Z,71.73
2023-02-19T10:49:47.051Z,71.48
2023-02-19T10:52:34.818Z,70.78
2023-02-19T10:55:37.927Z,70.91
2023-02-19T10:58:27.069Z,71.21
2023-02-19T11:01:18.746Z,71.33
2023-02-19T11:03:47.830Z,71.45
2023-02-19T11:06:16.977Z,70.86
2023-02-19T11:09:00.355Z,70.14
2023-02-19T11:11:40.740Z,69.28
2023-02-19T11:14:27.431Z,68.77
2023-02-19T11:16:57.074Z,68.14
2023-02-19T11:19:28.411Z,68.29
2023-02-19T11:21:56.233Z,68.56
2023-02-19T11:24:34.418Z,68.63
2023-02-19T11:27:05.265Z,67.88
2023-02-19T11:29:34.968Z,66.71
2023-02-19T11:32:24.813Z,66.73
2023-02-19T11:35:04.966Z,66.36
2023-02-19T11:37:31.257Z,66.57
2023-02-19T11:39:58.089Z,65.45
2023-02-19T11:42:50.648Z,64.91
2023-02-19T11:45:34.042Z,64.90
2023-02-19T11:48:14.728Z,65.34
2023-02-19T11:51:16.604Z,65.69
2023-02-19T11:53:51.400Z,65.85
2023-02-19T11:56:33.337Z,65.93
2023-02-19T11:59:15.809Z,65.59
2023-02-19T12:02:11.487Z,65.71
2023-02-19T12:05:11.371Z,65.56
2023-02-19T12:08:07.685Z,64.77
2023-02-19T12:11:19.095Z,64.47
2023-02-19T12:13:45.408Z,63.58
2023-02-19T12:16:30.207Z,64.05
2023-02-19T12:19:12.018Z,64.30
2023-02-19T12:21:59.937Z,64.81
2023-02-19T12:24:48.325Z,65.13
2023-02-19T12:27:41.448Z,65.14
2023-02-19T12:30:17.359Z,64.52
2023-02-19T12:33:05.349Z,64.06
2023-02-19T12:35:58.066Z,63.57
2023-02-19T12:38:34.628Z,62.98
2023-02-19T12:41:31.520Z,62.89
2023-02-19T12:44:23.756Z,63.34
2023-02-19T12:47:00.588Z,63.48
2023-02-19T12:49:35.242Z,63.66
2023-02-19T12:52:09.411Z,63.53
2023-02-19T12:54:43.396Z,63.31
2023-02-19T12:57:20.142Z,63.36
2023-02-19T12:59:56.098Z,63.89
2023-02-19T13:02:33.284Z,64.37
2023-02-19T13:05:17.926Z,64.66
2023-02-19T13:08:15.701Z,64.47
2023-02-19T13:11:20.169Z,64.61
2023-02-19T13:13:59.044Z,65.18
2023-02-19T13:19:15.244Z,65.66
2023-02-19T13:22:09.710Z,65.94
2023-02-19T13:24:42.132Z,66.18
2023-02-19T13:27:34.694Z,66.42
2023-02-19T13:30:24.351Z,66.60
2023-02-19T13:33:05.334Z,66.76
2023-02-19T13:35:58.446Z,66.58
2023-02-19T13:38:27.075Z,66.41
2023-02-19T13:41:00.149Z,66.24
2023-02-19T13:43:37.122Z,65.92
2023-02-19T13:46:09.701Z,65.20
2023-02-19T13:48:40.568Z,65.19
2023-02-19T13:51:23.694Z,65.06
2023-02-19T13:53:54.590Z,65.11
2023-02-19T13:56:34.495Z,65.16
2023-02-19T13:59:37.641Z,65.24
2023-02-19T14:02:25.934Z,65.27
2023-02-19T14:05:02.017Z,65.34
2023-02-19T14:07:51.147Z,64.94
2023-02-19T14:10:52.129Z,64.78
2023-02-19T14:13:47.589Z,63.75
2023-02-19T14:16:52.685Z,62.43
2023-02-19T14:19:42.722Z,61.53
2023-02-19T14:22:48.847Z,61.15
2023-02-19T14:25:28.566Z,60.82
2023-02-19T14:28:15.388Z,60.49
2023-02-19T14:30:59.311Z,60.61
2023-02-19T14:33:31.506Z,60.68
2023-02-19T14:36:06.176Z,60.65
2023-02-19T14:38:39.524Z,60.60
2023-02-19T14:41:13.732Z,60.76
2023-02-19T14:43:43.654Z,60.59
2023-02-19T14:46:31.241Z,60.52
2023-02-19T14:49:07.288Z,60.65
2023-02-19T14:51:44.870Z,60.87
2023-02-19T14:54:21.073Z,61.23
2023-02-19T14:56:55.237Z,61.46
2023-02-19T14:59:26.784Z,61.69
2023-02-19T15:02:03.689Z,61.78
2023-02-19T15:04:36.884Z,61.66
2023-02-19T15:07:08.513Z,61.67
2023-02-19T15:09:41.279Z,61.80
2023-02-19T15:12:17.291Z,61.76
2023-02-19T15:14:46.645Z,61.69
2023-02-19T15:17:25.571Z,61.42
2023-02-19T15:19:55.570Z,60.96
2023-02-19T15:22:25.895Z,60.79
2023-02-19T15:24:54.702Z,60.89
2023-02-19T15:27:24.544Z,60.86
2023-02-19T15:29:53.768Z,60.61
2023-02-19T15:32:27.251Z,60.24
2023-02-19T15:35:03.991Z,60.28
2023-02-19T15:37:35.689Z,60.51
2023-02-19T15:40:07.732Z,60.63
2023-02-19T15:42:37.213Z,60.85
2023-02-19T15:45:23.680Z,61.13
2023-02-19T15:47:55.656Z,61.42
2023-02-19T15:50:33.217Z,61.64
2023-02-19T15:53:09.513Z,61.98
2023-02-19T15:55:45.056Z,62.21
2023-02-19T15:58:32.323Z,62.37
2023-02-19T16:01:04.747Z,62.71
2023-02-19T16:03:32.817Z,62.92
2023-02-19T16:06:11.473Z,63.07
2023-02-19T16:08:40.874Z,63.32
2023-02-19T16:11:24.055Z,63.63
2023-02-19T16:13:52.116Z,63.98
2023-02-19T16:19:43.994Z,64.46
2023-02-19T16:22:15.980Z,64.63
2023-02-19T16:24:46.874Z,64.80
2023-02-19T16:27:40.817Z,64.88
2023-02-19T16:30:36.238Z,65.07
2023-02-19T16:33:21.280Z,65.24
2023-02-19T16:35:55.135Z,65.22
2023-02-19T16:38:25.432Z,65.30
2023-02-19T16:41:07.440Z,65.56
2023-02-19T16:43:41.689Z,65.78
2023-02-19T16:46:11.959Z,65.82
2023-02-19T16:48:39.821Z,66.12
2023-02-19T16:51:09.020Z,66.07
2023-02-19T16:53:36.922Z,65.98
2023-02-19T16:56:05.060Z,65.79
2023-02-19T16:58:32.777Z,65.79
2023-02-19T17:01:02.251Z,65.65
2023-02-19T17:03:30.261Z,65.76
2023-02-19T17:05:57.945Z,65.83
2023-02-19T17:08:34.044Z,65.81
2023-02-19T17:11:05.508Z,65.74
2023-02-19T17:13:33.432Z,65.73
2023-02-19T17:16:01.991Z,65.77
2023-02-19T17:18:30.021Z,65.75
2023-02-19T17:21:20.476Z,65.77
2023-02-19T17:23:51.448Z,65.71
2023-02-19T17:26:22.988Z,65.73
2023-02-19T17:28:51.288Z,65.70
2023-02-19T17:31:19.221Z,65.67
2023-02-19T17:33:47.109Z,65.67
2023-02-19T17:36:22.365Z,65.67
2023-02-19T17:38:50.742Z,65.79
2023-02-19T17:41:18.734Z,65.88
2023-02-19T17:43:47.521Z,66.05
2023-02-19T17:46:21.297Z,66.07
2023-02-19T17:48:50.893Z,66.26
2023-02-19T17:51:18.861Z,66.37
2023-02-19T17:53:47.015Z,66.50
2023-02-19T17:56:22.404Z,66.59
2023-02-19T17:58:50.363Z,66.71
2023-02-19T18:01:18.306Z,66.81
2023-02-19T18:03:46.434Z,67.01
2023-02-19T18:06:14.555Z,67.13
2023-02-19T18:08:52.656Z,67.30
2023-02-19T18:11:22.700Z,67.42
2023-02-19T18:13:52.034Z,67.45
2023-02-19T18:16:20.046Z,67.39
2023-02-19T18:18:47.952Z,67.37
2023-02-19T18:21:15.839Z,67.30
2023-02-19T18:23:43.726Z,67.35
2023-02-19T18:26:11.940Z,67.37
2023-02-19T18:28:40.277Z,67.36
2023-02-19T18:31:08.632Z,67.36
2023-02-19T18:33:37.912Z,67.30
2023-02-19T18:36:11.596Z,67.34
2023-02-19T18:38:39.463Z,67.40
2023-02-19T18:41:11.433Z,67.35
2023-02-19T18:43:41.524Z,67.35
2023-02-19T18:46:10.266Z,67.36
2023-02-19T18:48:38.511Z,67.31
2023-02-19T18:51:10.940Z,67.25
2023-02-19T18:53:38.899Z,67.25
2023-02-19T18:56:09.028Z,67.26
2023-02-19T18:58:36.764Z,67.32
2023-02-19T19:01:04.731Z,67.28
2023-02-19T19:03:32.481Z,67.30
2023-02-19T19:06:00.703Z,67.35
2023-02-19T19:08:30.651Z,67.39
2023-02-19T19:10:58.804Z,67.38
2023-02-19T19:13:26.733Z,67.31
2023-02-19T19:15:54.837Z,67.31
2023-02-19T19:18:22.835Z,67.26
2023-02-19T19:20:50.662Z,67.15
2023-02-19T19:23:18.493Z,67.15
2023-02-19T19:25:48.683Z,67.03
2023-02-19T19:28:17.353Z,66.97
2023-02-19T19:30:45.199Z,66.91
2023-02-19T19:33:17.885Z,66.87
2023-02-19T19:35:45.587Z,66.80
2023-02-19T19:38:13.352Z,66.78
2023-02-19T19:40:42.324Z,66.74
2023-02-19T19:43:10.257Z,66.66
2023-02-19T19:45:38.561Z,66.61
2023-02-19T19:48:06.354Z,66.63
2023-02-19T19:50:34.267Z,66.42
2023-02-19T19:53:02.011Z,66.19
2023-02-19T19:55:29.954Z,66.01
2023-02-19T19:57:57.753Z,65.87
2023-02-19T20:00:25.782Z,65.85
2023-02-19T20:02:53.600Z,65.84
2023-02-19T20:05:21.952Z,65.74
2023-02-19T20:07:52.917Z,65.75
2023-02-19T20:10:20.939Z,65.81
2023-02-19T20:12:49.622Z,65.93
2023-02-19T20:15:22.295Z,65.79
2023-02-19T20:20:35.885Z,66.04
2023-02-19T20:23:04.237Z,66.22
2023-02-19T20:25:31.998Z,66.18
2023-02-19T20:27:59.880Z,66.18
2023-02-19T20:30:29.074Z,66.18
2023-02-19T20:32:57.310Z,66.33
2023-02-19T20:35:28.727Z,66.49
2023-02-19T20:37:56.805Z,66.46
2023-02-19T20:40:27.482Z,66.35
2023-02-19T20:42:55.200Z,66.33
2023-02-19T20:45:23.138Z,66.43
2023-02-19T20:47:50.872Z,66.54
2023-02-19T20:50:19.216Z,66.67
2023-02-19T20:52:49.431Z,66.79
2023-02-19T20:55:17.515Z,66.89
2023-02-19T20:57:45.830Z,66.96
2023-02-19T21:00:15.653Z,67.00
2023-02-19T21:02:43.564Z,67.13
2023-02-19T21:05:13.883Z,67.21
2023-02-19T21:07:41.501Z,67.27
2023-02-19T21:10:10.086Z,67.28
2023-02-19T21:12:38.212Z,67.34
2023-02-19T21:15:06.436Z,67.43
2023-02-19T21:17:34.498Z,67.56
2023-02-19T21:20:02.551Z,67.66
2023-02-19T21:22:31.991Z,67.72
2023-02-19T21:24:59.782Z,67.73
2023-02-19T21:27:27.825Z,67.76
2023-02-19T21:29:55.862Z,67.82
2023-02-19T21:32:23.702Z,67.87
2023-02-19T21:34:51.543Z,67.91
2023-02-19T21:37:21.051Z,67.97
2023-02-19T21:39:48.900Z,68.03
2023-02-19T21:42:18.925Z,68.09
2023-02-19T21:44:46.692Z,68.29
2023-02-19T21:47:14.835Z,68.40
2023-02-19T21:49:43.216Z,68.49
2023-02-19T21:52:10.991Z,68.63
2023-02-19T21:54:38.690Z,68.76
2023-02-19T21:57:06.747Z,68.84
2023-02-19T21:59:34.602Z,68.86
2023-02-19T22:02:02.767Z,68.97
2023-02-19T22:04:30.584Z,69.11
2023-02-19T22:06:58.486Z,69.31
2023-02-19T22:09:26.571Z,69.45
2023-02-19T22:11:54.416Z,69.52
2023-02-19T22:14:22.144Z,69.59
2023-02-19T22:16:49.947Z,69.73
2023-02-19T22:19:17.789Z,70.09
2023-02-19T22:21:45.567Z,70.22
2023-02-19T22:24:18.693Z,70.13
2023-02-19T22:26:46.542Z,70.14
2023-02-19T22:29:16.060Z,70.21
2023-02-19T22:31:43.855Z,70.27
2023-02-19T22:34:11.828Z,70.43
2023-02-19T22:36:40.303Z,70.66
2023-02-19T22:39:14.895Z,70.78
2023-02-19T22:41:43.154Z,70.78
2023-02-19T22:44:11.376Z,71.01
2023-02-19T22:46:39.329Z,71.21
2023-02-19T22:49:07.453Z,71.18
2023-02-19T22:51:35.642Z,71.27
2023-02-19T22:54:03.568Z,71.31
2023-02-19T22:56:31.180Z,71.40
2023-02-19T22:59:00.496Z,71.41
2023-02-19T23:01:28.326Z,71.39
2023-02-19T23:03:58.238Z,71.43
2023-02-19T23:06:31.980Z,71.40
2023-02-19T23:09:04.810Z,71.41
2023-02-19T23:11:35.158Z,71.38
2023-02-19T23:14:03.330Z,71.43
2023-02-19T23:19:56.973Z,71.41
2023-02-19T23:22:24.739Z,71.34
2023-02-19T23:24:52.396Z,71.23
2023-02-19T23:27:20.265Z,71.09
2023-02-19T23:29:47.909Z,71.00
2023-02-19T23:32:20.834Z,70.90
2023-02-19T23:34:48.520Z,70.80
2023-02-19T23:37:16.759Z,70.75
2023-02-19T23:39:44.780Z,70.65
2023-02-19T23:42:16.566Z,70.68
2023-02-19T23:44:47.744Z,70.57
2023-02-19T23:47:15.624Z,70.42
2023-02-19T23:49:43.327Z,70.26
2023-02-19T23:52:11.013Z,70.25
2023-02-19T23:54:39.516Z,70.37
2023-02-19T23:57:07.300Z,70.72
2023-02-19T23:59:34.959Z,70.97
